Time;durP1;ratioP1;P1;durP2;ratioP2;P2;SDS_P1;SDS_P2;PMS_P1;PMS_P2;Temp;Humidity;BMP_temperature;BMP_pressure;BME280_temperature;BME280_humidity;BME280_pressure;Samples;Min_cycle;Max_cycle;Signal;HPM_P1;HPM_P2
2022/04/15 00:02:32;;;;;;;18.93;10.73;;;;;;;;;;10415652;28;20037;-71
2022/04/15 00:07:36;;;;;;;17.52;9.90;;;;;;;;;;10417276;28;20044;-71
2022/04/15 00:12:39;;;;;;;23.30;11.43;;;;;;;;;;10443357;28;20128;-72
2022/04/15 00:17:43;;;;;;;20.47;11.43;;;;;;;;;;10442235;28;20029;-71
2022/04/15 00:22:47;;;;;;;21.70;12.20;;;;;;;;;;10421172;28;20067;-72
2022/04/15 00:27:50;;;;;;;21.75;12.40;;;;;;;;;;10433965;28;20382;-71
2022/04/15 00:32:54;;;;;;;24.37;12.87;;;;;;;;;;10444130;28;20034;-71
2022/04/15 00:37:57;;;;;;;24.65;12.93;;;;;;;;;;10425136;28;20044;-72
2022/04/15 00:43:00;;;;;;;24.85;14.00;;;;;;;;;;10421145;28;20471;-72
2022/04/15 00:48:07;;;;;;;25.23;13.65;;;;;;;;;;10436425;28;20060;-72
2022/04/15 00:53:11;;;;;;;24.30;11.30;;;;;;;;;;10437035;28;20045;-71
2022/04/15 00:58:15;;;;;;;16.40;8.40;;;;;;;;;;10432622;28;20524;-71
2022/04/15 01:03:21;;;;;;;28.38;15.00;;;;;;;;;;10429798;28;20045;-72
2022/04/15 01:08:24;;;;;;;24.98;13.00;;;;;;;;;;10437070;28;20041;-71
2022/04/15 01:13:34;;;;;;;25.80;13.73;;;;;;;;;;10430266;28;20285;-70
2022/04/15 01:18:43;;;;;;;27.52;13.75;;;;;;;;;;10419155;28;20041;-70
2022/04/15 01:23:52;;;;;;;23.75;12.80;;;;;;;;;;10431195;28;20489;-71
2022/04/15 01:28:59;;;;;;;32.20;15.82;;;;;;;;;;10431982;28;20062;-70
2022/04/15 01:34:09;;;;;;;27.83;15.25;;;;;;;;;;10418199;28;20032;-71
2022/04/15 01:39:13;;;;;;;26.80;14.10;;;;;;;;;;10428307;28;20053;-70
2022/04/15 01:44:17;;;;;;;26.77;14.25;;;;;;;;;;10417782;28;20041;-70
2022/04/15 01:49:21;;;;;;;30.80;15.63;;;;;;;;;;10434181;28;20041;-70
2022/04/15 01:54:27;;;;;;;32.80;16.07;;;;;;;;;;10434360;28;20057;-71
2022/04/15 01:59:31;;;;;;;31.38;16.42;;;;;;;;;;10428920;28;20420;-71
2022/04/15 02:04:34;;;;;;;28.15;14.55;;;;;;;;;;10430388;28;20037;-71
2022/04/15 02:09:39;;;;;;;29.00;16.17;;;;;;;;;;10425681;28;20050;-70
2022/04/15 02:14:42;;;;;;;35.17;17.52;;;;;;;;;;10427838;28;20084;-72
2022/04/15 02:19:45;;;;;;;36.50;19.02;;;;;;;;;;10428860;28;20033;-70
2022/04/15 02:24:50;;;;;;;36.03;18.17;;;;;;;;;;10406822;28;20045;-71
2022/04/15 02:29:53;;;;;;;33.08;17.45;;;;;;;;;;10429078;28;20040;-71
2022/04/15 02:34:56;;;;;;;36.88;19.27;;;;;;;;;;10443332;28;20033;-71
2022/04/15 02:40:01;;;;;;;31.73;16.13;;;;;;;;;;10428294;28;20041;-71
2022/04/15 02:45:05;;;;;;;28.75;15.25;;;;;;;;;;10428020;28;20029;-71
2022/04/15 02:50:09;;;;;;;26.75;14.73;;;;;;;;;;10414134;28;20038;-71
2022/04/15 02:55:14;;;;;;;28.27;14.27;;;;;;;;;;10429529;28;20037;-71
2022/04/15 03:00:17;;;;;;;29.35;14.55;;;;;;;;;;10413771;28;20551;-71
2022/04/15 03:05:23;;;;;;;32.83;15.40;;;;;;;;;;10430779;28;20037;-70
2022/04/15 03:10:28;;;;;;;28.67;14.48;;;;;;;;;;10425145;28;20095;-72
2022/04/15 03:15:32;;;;;;;27.42;13.88;;;;;;;;;;10429991;28;20038;-71
2022/04/15 03:20:35;;;;;;;26.88;13.95;;;;;;;;;;10424629;28;20033;-71
2022/04/15 03:25:40;;;;;;;28.73;14.98;;;;;;;;;;10445960;22;20056;-72
2022/04/15 03:30:43;;;;;;;34.75;16.20;;;;;;;;;;10404230;28;20049;-72
2022/04/15 03:35:46;;;;;;;33.50;16.80;;;;;;;;;;10384822;28;20063;-73
2022/04/15 03:40:51;;;;;;;31.00;15.70;;;;;;;;;;10367764;28;20129;-73
2022/04/15 03:45:54;;;;;;;38.88;18.08;;;;;;;;;;10375488;28;20060;-74
2022/04/15 03:50:58;;;;;;;34.07;18.03;;;;;;;;;;10356345;28;20153;-73
2022/04/15 03:56:02;;;;;;;43.28;18.98;;;;;;;;;;10359526;28;20456;-74
2022/04/15 04:01:05;;;;;;;33.72;16.52;;;;;;;;;;10376515;28;20092;-73
2022/04/15 04:06:09;;;;;;;;;;;;;;;;;;10371859;28;20045;-72
2022/04/15 04:11:13;;;;;;;36.90;17.33;;;;;;;;;;10372125;28;19936;-74
2022/04/15 04:16:18;;;;;;;32.78;15.68;;;;;;;;;;10373036;28;20169;-73
2022/04/15 04:21:21;;;;;;;35.97;18.23;;;;;;;;;;10371002;28;20048;-75
2022/04/15 04:26:26;;;;;;;33.92;17.35;;;;;;;;;;10368169;28;20033;-72
2022/04/15 04:31:29;;;;;;;38.70;18.33;;;;;;;;;;10368254;28;20365;-73
2022/04/15 04:36:32;;;;;;;44.45;18.33;;;;;;;;;;10370512;28;20042;-73
2022/04/15 04:41:37;;;;;;;43.60;18.95;;;;;;;;;;10354601;28;20057;-74
2022/04/15 04:46:41;;;;;;;41.70;19.40;;;;;;;;;;10351288;28;20129;-75
2022/04/15 04:51:44;;;;;;;42.92;20.17;;;;;;;;;;10354310;28;20068;-74
2022/04/15 04:56:49;;;;;;;39.30;18.58;;;;;;;;;;10368132;28;20064;-73
2022/04/15 05:01:53;;;;;;;37.95;18.05;;;;;;;;;;10369122;28;20045;-73
2022/04/15 05:06:56;;;;;;;40.75;18.48;;;;;;;;;;10369032;28;20108;-73
2022/04/15 05:12:01;;;;;;;34.75;17.58;;;;;;;;;;10369955;28;20064;-73
2022/04/15 05:17:04;;;;;;;35.05;17.58;;;;;;;;;;10367670;28;20045;-73
2022/04/15 05:22:08;;;;;;;36.40;18.27;;;;;;;;;;10366962;28;20038;-73
2022/04/15 05:27:13;;;;;;;33.45;17.30;;;;;;;;;;10364678;28;20129;-73
2022/04/15 05:32:18;;;;;;;39.08;19.00;;;;;;;;;;10366920;28;20073;-73
2022/04/15 05:37:21;;;;;;;34.38;17.67;;;;;;;;;;10369454;28;20044;-74
2022/04/15 05:42:28;;;;;;;32.42;16.55;;;;;;;;;;10369516;28;20034;-74
2022/04/15 05:47:32;;;;;;;32.65;18.55;;;;;;;;;;10364149;28;20038;-74
2022/04/15 05:52:35;;;;;;;40.20;17.92;;;;;;;;;;10352905;28;20150;-74
2022/04/15 05:57:39;;;;;;;31.27;17.07;;;;;;;;;;10368269;28;20038;-72
2022/04/15 06:02:42;;;;;;;31.60;16.20;;;;;;;;;;10366691;28;20049;-73
2022/04/15 06:07:46;;;;;;;34.70;17.27;;;;;;;;;;10365952;28;20325;-73
2022/04/15 06:13:02;;;;;;;32.75;16.58;;;;;;;;;;10347438;28;20037;-73
2022/04/15 06:18:07;;;;;;;35.22;17.55;;;;;;;;;;10364667;28;20064;-73
2022/04/15 06:23:10;;;;;;;36.33;16.20;;;;;;;;;;10366739;28;20063;-74
2022/04/15 06:28:16;;;;;;;29.23;15.25;;;;;;;;;;10364976;28;20041;-74
2022/04/15 06:33:20;;;;;;;30.42;15.27;;;;;;;;;;10367216;28;20068;-73
2022/04/15 06:38:23;;;;;;;26.10;14.18;;;;;;;;;;10349148;28;20286;-73
2022/04/15 06:43:27;;;;;;;26.70;14.15;;;;;;;;;;10371840;28;20033;-74
2022/04/15 06:48:31;;;;;;;30.85;14.15;;;;;;;;;;10349068;28;20037;-75
2022/04/15 06:53:34;;;;;;;26.55;13.98;;;;;;;;;;10368048;28;20152;-70
2022/04/15 06:58:38;;;;;;;;;;;;;;;;;;10351244;28;20041;-73
2022/04/15 07:03:42;;;;;;;29.45;14.60;;;;;;;;;;10368501;28;19930;-73
2022/04/15 07:08:45;;;;;;;25.90;14.35;;;;;;;;;;10349538;28;20530;-72
2022/04/15 07:13:48;;;;;;;25.50;13.55;;;;;;;;;;10369406;28;20061;-73
2022/04/15 07:18:56;;;;;;;25.92;13.23;;;;;;;;;;10358864;28;20033;-74
2022/04/15 07:23:59;;;;;;;26.98;14.05;;;;;;;;;;10364293;28;20041;-72
2022/04/15 07:29:02;;;;;;;;;;;;;;;;;;10368304;28;20038;-72
2022/04/15 07:34:08;;;;;;;28.73;14.70;;;;;;;;;;10347748;28;20012;-73
2022/04/15 07:39:14;;;;;;;28.23;14.73;;;;;;;;;;10366222;28;20034;-74
2022/04/15 07:44:17;;;;;;;36.50;16.58;;;;;;;;;;10364503;28;20034;-73
2022/04/15 07:49:22;;;;;;;29.52;16.50;;;;;;;;;;10367989;28;20033;-73
2022/04/15 07:54:26;;;;;;;31.27;16.63;;;;;;;;;;10367032;28;20116;-73
2022/04/15 07:59:29;;;;;;;32.13;16.83;;;;;;;;;;10363951;28;20034;-74
2022/04/15 08:04:34;;;;;;;;;;;;;;;;;;10367721;28;20036;-73
2022/04/15 08:09:39;;;;;;;28.92;15.82;;;;;;;;;;10350461;28;19948;-73
2022/04/15 08:14:42;;;;;;;28.90;16.15;;;;;;;;;;10348621;28;20037;-73
2022/04/15 08:19:46;;;;;;;32.28;16.10;;;;;;;;;;10351019;28;20042;-73
2022/04/15 08:24:51;;;;;;;26.65;14.23;;;;;;;;;;10347696;28;20045;-73
2022/04/15 08:29:54;;;;;;;24.67;13.70;;;;;;;;;;10355473;28;20121;-74
2022/04/15 08:34:57;;;;;;;24.88;14.57;;;;;;;;;;10375571;28;20490;-74
2022/04/15 08:40:02;;;;;;;25.23;13.75;;;;;;;;;;10355487;28;20111;-74
2022/04/15 08:45:06;;;;;;;24.05;13.80;;;;;;;;;;10354547;28;20034;-74
2022/04/15 08:50:12;;;;;;;23.13;14.02;;;;;;;;;;10369796;28;20045;-73
2022/04/15 08:55:16;;;;;;;23.13;13.98;;;;;;;;;;10371606;28;20042;-74
2022/04/15 09:00:20;;;;;;;19.88;13.38;;;;;;;;;;10369841;28;20088;-73
2022/04/15 09:05:24;;;;;;;16.20;13.07;;;;;;;;;;10374203;28;20060;-73
2022/04/15 09:10:29;;;;;;;15.20;12.60;;;;;;;;;;10353855;28;20490;-74
2022/04/15 09:15:32;;;;;;;15.02;11.70;;;;;;;;;;10371637;28;20042;-74
2022/04/15 09:20:36;;;;;;;11.82;10.07;;;;;;;;;;10368656;28;20049;-75
2022/04/15 09:25:41;;;;;;;11.30;10.07;;;;;;;;;;10358872;28;20552;-74
2022/04/15 09:30:44;;;;;;;11.30;9.88;;;;;;;;;;10440142;22;20053;-72
2022/04/15 09:35:49;;;;;;;9.25;8.18;;;;;;;;;;10413679;28;20069;-72
2022/04/15 09:40:59;;;;;;;7.28;6.57;;;;;;;;;;10435462;28;20037;-71
2022/04/15 09:46:09;;;;;;;8.43;6.80;;;;;;;;;;10433215;28;20094;-72
2022/04/15 09:51:18;;;;;;;8.05;6.05;;;;;;;;;;10417808;28;20045;-72
2022/04/15 09:56:24;;;;;;;8.57;6.93;;;;;;;;;;10432348;28;20064;-71
2022/04/15 10:01:29;;;;;;;8.75;7.03;;;;;;;;;;10436490;28;20041;-73
2022/04/15 10:06:33;;;;;;;9.88;7.60;;;;;;;;;;10435432;28;20064;-72
2022/04/15 10:11:42;;;;;;;8.38;7.53;;;;;;;;;;10417069;28;20048;-73
2022/04/15 10:16:45;;;;;;;9.02;7.53;;;;;;;;;;10412531;28;20497;-72
2022/04/15 10:21:50;;;;;;;9.93;7.40;;;;;;;;;;10417063;28;20493;-72
2022/04/15 10:26:59;;;;;;;11.13;7.90;;;;;;;;;;10420960;28;20084;-72
2022/04/15 10:32:11;;;;;;;8.75;7.85;;;;;;;;;;10433384;28;20434;-72
2022/04/15 10:37:15;;;;;;;9.75;7.82;;;;;;;;;;10434933;28;20067;-72
2022/04/15 10:42:20;;;;;;;11.77;10.45;;;;;;;;;;10430846;28;20099;-73
2022/04/15 10:47:29;;;;;;;8.60;7.22;;;;;;;;;;10435882;28;20060;-72
2022/04/15 10:52:34;;;;;;;12.02;8.60;;;;;;;;;;10434505;28;20033;-72
2022/04/15 10:57:40;;;;;;;9.32;7.57;;;;;;;;;;10433137;28;20394;-72
2022/04/15 11:02:45;;;;;;;11.63;7.82;;;;;;;;;;10430190;28;20041;-73
2022/04/15 11:07:50;;;;;;;10.60;8.18;;;;;;;;;;10433625;28;20408;-71
2022/04/15 11:12:55;;;;;;;10.48;7.82;;;;;;;;;;10433105;28;20037;-71
2022/04/15 11:18:13;;;;;;;11.07;8.45;;;;;;;;;;10412121;28;20417;-71
2022/04/15 11:23:17;;;;;;;10.40;8.32;;;;;;;;;;10432204;28;20064;-72
2022/04/15 11:28:21;;;;;;;13.50;8.52;;;;;;;;;;10411660;28;20033;-72
2022/04/15 11:33:25;;;;;;;10.80;7.00;;;;;;;;;;10413922;28;20052;-72
2022/04/15 11:38:28;;;;;;;8.38;6.45;;;;;;;;;;10432337;28;20091;-71
2022/04/15 11:43:37;;;;;;;8.02;6.40;;;;;;;;;;10437052;28;20040;-72
2022/04/15 11:48:41;;;;;;;9.45;6.72;;;;;;;;;;10413950;28;20129;-72
2022/04/15 11:53:44;;;;;;;7.47;6.30;;;;;;;;;;10429268;28;20060;-72
2022/04/15 11:58:49;;;;;;;8.95;7.05;;;;;;;;;;10418422;28;20069;-72
2022/04/15 12:03:52;;;;;;;8.75;5.78;;;;;;;;;;10432413;28;20212;-72
2022/04/15 12:08:56;;;;;;;9.82;6.18;;;;;;;;;;10420278;28;20049;-72
2022/04/15 12:14:02;;;;;;;7.95;6.32;;;;;;;;;;10421899;28;20124;-71
2022/04/15 12:19:07;;;;;;;9.13;6.70;;;;;;;;;;10421779;28;20040;-71
2022/04/15 12:24:10;;;;;;;8.18;5.65;;;;;;;;;;10420646;28;20049;-71
2022/04/15 12:34:36;;;;;;;9.13;5.60;;;;;;;;;;10437568;28;20072;-72
2022/04/15 12:39:51;;;;;;;8.73;6.50;;;;;;;;;;10438964;28;20150;-73
2022/04/15 12:44:56;;;;;;;7.22;5.13;;;;;;;;;;10439099;28;20061;-71
2022/04/15 12:50:25;;;;;;;6.70;4.38;;;;;;;;;;10416039;28;20157;-72
2022/04/15 12:55:29;;;;;;;8.00;4.90;;;;;;;;;;10401341;28;20064;-71
2022/04/15 13:00:33;;;;;;;5.97;4.53;;;;;;;;;;10438245;28;20040;-71
2022/04/15 13:05:37;;;;;;;7.68;4.88;;;;;;;;;;10418936;28;20492;-71
2022/04/15 13:10:43;;;;;;;5.97;3.88;;;;;;;;;;10437706;28;20033;-71
2022/04/15 13:16:08;;;;;;;7.97;5.90;;;;;;;;;;10418334;28;20051;-71
2022/04/15 13:21:11;;;;;;;8.65;5.18;;;;;;;;;;10434318;28;20052;-73
2022/04/15 13:26:14;;;;;;;8.05;5.50;;;;;;;;;;10433690;28;20045;-71
2022/04/15 13:31:20;;;;;;;6.97;5.05;;;;;;;;;;10415519;28;20090;-71
2022/04/15 13:36:24;;;;;;;8.82;5.20;;;;;;;;;;10434286;28;20141;-72
2022/04/15 13:41:27;;;;;;;7.72;4.93;;;;;;;;;;10434942;28;20390;-72
2022/04/15 13:46:32;;;;;;;6.97;5.10;;;;;;;;;;10418215;28;20080;-72
2022/04/15 13:51:34;;;;;;;7.18;4.63;;;;;;;;;;10418113;28;20558;-71
2022/04/15 13:56:41;;;;;;;9.10;5.43;;;;;;;;;;10411432;28;20424;-71
2022/04/15 14:01:46;;;;;;;10.95;7.47;;;;;;;;;;10434623;28;20481;-71
2022/04/15 14:06:50;;;;;;;13.80;6.25;;;;;;;;;;10431407;28;20505;-71
2022/04/15 14:11:53;;;;;;;10.48;6.03;;;;;;;;;;10439317;28;20300;-72
2022/04/15 14:16:58;;;;;;;12.15;7.45;;;;;;;;;;10412666;28;20037;-72
2022/04/15 14:22:01;;;;;;;8.18;5.55;;;;;;;;;;10431804;28;20057;-72
2022/04/15 14:27:04;;;;;;;7.65;4.90;;;;;;;;;;10437517;28;20033;-72
2022/04/15 14:32:09;;;;;;;10.07;6.05;;;;;;;;;;10434670;28;20492;-72
2022/04/15 14:37:12;;;;;;;7.70;4.57;;;;;;;;;;10416023;28;20037;-72
2022/04/15 14:42:16;;;;;;;9.40;5.78;;;;;;;;;;10435659;28;20051;-71
2022/04/15 14:47:21;;;;;;;12.82;6.85;;;;;;;;;;10413242;28;20390;-72
2022/04/15 14:52:24;;;;;;;8.23;5.57;;;;;;;;;;10412442;28;20289;-72
2022/04/15 14:57:28;;;;;;;10.30;5.60;;;;;;;;;;10412988;28;20084;-71
2022/04/15 15:02:33;;;;;;;12.05;5.35;;;;;;;;;;10430123;28;20099;-71
2022/04/15 15:07:36;;;;;;;8.93;4.65;;;;;;;;;;10423244;28;20047;-72
2022/04/15 15:12:40;;;;;;;8.15;5.28;;;;;;;;;;10415860;28;20037;-72
2022/04/15 15:17:46;;;;;;;6.57;4.45;;;;;;;;;;10426456;28;20049;-71
2022/04/15 15:22:49;;;;;;;8.27;4.75;;;;;;;;;;10433041;28;20086;-72
2022/04/15 15:33:14;;;;;;;5.60;3.55;;;;;;;;;;10449794;28;19987;-78
2022/04/15 15:38:23;;;;;;;5.38;3.28;;;;;;;;;;10445922;28;20116;-80
2022/04/15 15:43:27;;;;;;;7.55;4.05;;;;;;;;;;10450074;28;20029;-78
2022/04/15 15:48:32;;;;;;;5.93;3.40;;;;;;;;;;10454065;28;20037;-78
2022/04/15 15:53:40;;;;;;;6.00;3.55;;;;;;;;;;10454960;28;20107;-78
2022/04/15 15:58:43;;;;;;;6.65;3.22;;;;;;;;;;10453868;28;20026;-77
2022/04/15 16:03:48;;;;;;;6.47;3.35;;;;;;;;;;10446670;28;20053;-78
2022/04/15 16:08:52;;;;;;;6.40;3.40;;;;;;;;;;10504760;22;20080;-72
2022/04/15 16:13:55;;;;;;;7.18;3.80;;;;;;;;;;10481669;28;20045;-71
2022/04/15 16:19:00;;;;;;;5.43;3.35;;;;;;;;;;10494937;22;20443;-69
2022/04/15 16:24:03;;;;;;;4.55;2.90;;;;;;;;;;10473637;28;20151;-69
2022/04/15 16:29:12;;;;;;;5.65;3.35;;;;;;;;;;10471952;28;20068;-71
2022/04/15 16:34:17;;;;;;;8.30;3.53;;;;;;;;;;10449631;28;20056;-70
2022/04/15 16:39:21;;;;;;;6.55;3.60;;;;;;;;;;10468331;28;20115;-69
2022/04/15 16:44:25;;;;;;;5.20;3.60;;;;;;;;;;10465107;28;20040;-70
2022/04/15 16:49:30;;;;;;;6.30;4.10;;;;;;;;;;10450020;28;20037;-70
2022/04/15 17:00:09;;;;;;;5.68;4.10;;;;;;;;;;10293009;28;20046;-70
2022/04/15 17:05:14;;;;;;;6.20;4.10;;;;;;;;;;10430074;28;20528;-71
2022/04/15 17:10:24;;;;;;;6.60;3.40;;;;;;;;;;10471226;28;20031;-71
2022/04/15 17:15:27;;;;;;;5.50;3.20;;;;;;;;;;10480365;28;20041;-69
2022/04/15 17:20:33;;;;;;;5.47;3.30;;;;;;;;;;10459480;28;20068;-69
2022/04/15 17:25:35;;;;;;;10.57;4.45;;;;;;;;;;10459794;28;20459;-71
2022/04/15 17:30:39;;;;;;;5.35;2.95;;;;;;;;;;10464970;28;20028;-70
2022/04/15 17:35:43;;;;;;;7.60;4.28;;;;;;;;;;10463669;28;20386;-70
2022/04/15 17:40:50;;;;;;;4.80;3.38;;;;;;;;;;10448482;28;20030;-71
2022/04/15 17:45:53;;;;;;;;;;;;;;;;;;10463053;28;20473;-70
2022/04/15 17:50:58;;;;;;;7.50;4.10;;;;;;;;;;10441759;28;19920;-70
2022/04/15 17:56:01;;;;;;;16.45;7.75;;;;;;;;;;10464693;28;20378;-70
2022/04/15 18:01:04;;;;;;;7.43;3.25;;;;;;;;;;10462576;28;20033;-70
2022/04/15 18:06:09;;;;;;;7.00;2.78;;;;;;;;;;10460449;28;20043;-71
2022/04/15 18:11:13;;;;;;;7.30;3.75;;;;;;;;;;10460101;28;20551;-70
2022/04/15 18:16:16;;;;;;;8.38;4.20;;;;;;;;;;10458118;28;20048;-71
2022/04/15 18:21:22;;;;;;;9.38;4.68;;;;;;;;;;10458671;28;20089;-71
2022/04/15 18:26:25;;;;;;;10.48;5.57;;;;;;;;;;10441478;28;20094;-70
2022/04/15 18:31:30;;;;;;;;;;;;;;;;;;10460414;28;20170;-70
2022/04/15 18:36:35;;;;;;;11.65;5.75;;;;;;;;;;10457491;28;20343;-70
2022/04/15 18:41:38;;;;;;;7.78;3.30;;;;;;;;;;10437702;28;20075;-70
2022/04/15 18:46:41;;;;;;;8.38;3.85;;;;;;;;;;10457468;28;20033;-69
2022/04/15 18:57:07;;;;;;;6.90;3.58;;;;;;;;;;10457398;28;20507;-69
2022/04/15 19:02:12;;;;;;;7.30;4.32;;;;;;;;;;10464287;28;20474;-70
2022/04/15 19:07:19;;;;;;;6.18;3.42;;;;;;;;;;10443876;28;20068;-69
2022/04/15 19:12:23;;;;;;;6.03;3.90;;;;;;;;;;10455329;28;20511;-69
2022/04/15 19:17:26;;;;;;;7.47;3.10;;;;;;;;;;10438380;28;20404;-69
2022/04/15 19:22:31;;;;;;;6.40;3.35;;;;;;;;;;10457244;28;20469;-69
2022/04/15 19:27:35;;;;;;;4.30;2.97;;;;;;;;;;10458557;28;20051;-71
2022/04/15 19:32:38;;;;;;;9.55;4.28;;;;;;;;;;10438874;28;20044;-71
2022/04/15 19:37:43;;;;;;;7.70;3.10;;;;;;;;;;10438728;28;20041;-70
2022/04/15 19:42:46;;;;;;;6.18;2.67;;;;;;;;;;10437939;28;20056;-70
2022/04/15 19:47:50;;;;;;;3.92;2.47;;;;;;;;;;10439907;28;20041;-70
2022/04/15 19:52:56;;;;;;;3.40;2.05;;;;;;;;;;10459732;28;20033;-70
2022/04/15 20:03:40;;;;;;;3.80;2.20;;;;;;;;;;10441724;28;20039;-70
2022/04/15 20:08:45;;;;;;;2.63;1.90;;;;;;;;;;10456618;28;20567;-70
2022/04/15 20:13:49;;;;;;;4.95;2.40;;;;;;;;;;10439655;28;20047;-70
2022/04/15 20:18:53;;;;;;;6.47;2.92;;;;;;;;;;10453490;28;20044;-69
2022/04/15 20:23:57;;;;;;;6.70;3.38;;;;;;;;;;10434992;28;20041;-70
2022/04/15 20:29:01;;;;;;;8.73;3.55;;;;;;;;;;10446365;28;20044;-66
2022/04/15 20:34:04;;;;;;;10.67;4.40;;;;;;;;;;10463191;28;20112;-66
2022/04/15 20:39:08;;;;;;;10.50;4.63;;;;;;;;;;10442960;28;20056;-69
2022/04/15 20:44:11;;;;;;;7.45;4.18;;;;;;;;;;10459360;28;20505;-69
2022/04/15 20:54:41;;;;;;;7.15;4.10;;;;;;;;;;10441019;28;20493;-70
2022/04/15 21:00:05;;;;;;;10.88;4.88;;;;;;;;;;10442854;28;20076;-70
2022/04/15 21:05:10;;;;;;;9.60;4.43;;;;;;;;;;10462681;28;20048;-70
2022/04/15 21:10:15;;;;;;;6.80;3.33;;;;;;;;;;10464180;28;20123;-71
2022/04/15 21:15:18;;;;;;;7.38;3.17;;;;;;;;;;10463260;28;20436;-69
2022/04/15 21:20:21;;;;;;;6.97;2.90;;;;;;;;;;10466251;28;20407;-69
2022/04/15 21:25:26;;;;;;;6.70;3.17;;;;;;;;;;10464466;28;20093;-68
2022/04/15 21:30:29;;;;;;;9.25;3.40;;;;;;;;;;10465032;28;20028;-69
2022/04/15 21:35:32;;;;;;;8.48;4.05;;;;;;;;;;10463344;28;20028;-67
2022/04/15 21:40:38;;;;;;;6.23;3.00;;;;;;;;;;10445673;28;20036;-70
2022/04/15 21:45:41;;;;;;;10.10;3.20;;;;;;;;;;10460460;28;20343;-72
2022/04/15 21:56:07;;;;;;;8.15;2.60;;;;;;;;;;10458878;28;20400;-70
2022/04/15 22:01:13;;;;;;;8.52;3.92;;;;;;;;;;10460303;28;20045;-70
2022/04/15 22:06:17;;;;;;;5.80;2.85;;;;;;;;;;10460555;28;20132;-69
2022/04/15 22:11:21;;;;;;;;;;;;;;;;;;10443047;28;20124;-71
2022/04/15 22:16:25;;;;;;;6.95;2.80;;;;;;;;;;10442575;28;20038;-69
2022/04/15 22:21:28;;;;;;;8.48;3.70;;;;;;;;;;10505607;22;20515;-70
2022/04/15 22:26:32;;;;;;;4.65;2.70;;;;;;;;;;10513842;28;20033;-70
2022/04/15 22:31:43;;;;;;;5.32;2.65;;;;;;;;;;10508582;28;20055;-71
2022/04/15 22:36:46;;;;;;;6.43;2.40;;;;;;;;;;10516476;28;20062;-71
2022/04/15 22:41:49;;;;;;;5.30;2.50;;;;;;;;;;10508986;28;20319;-71
2022/04/15 22:46:54;;;;;;;4.25;2.40;;;;;;;;;;10509658;28;20445;-71
2022/04/15 22:51:59;;;;;;;4.40;2.33;;;;;;;;;;10510264;28;20190;-71
2022/04/15 22:57:11;;;;;;;8.13;2.80;;;;;;;;;;10501875;28;20434;-71
2022/04/15 23:02:15;;;;;;;5.47;2.58;;;;;;;;;;10512408;28;20040;-70
2022/04/15 23:07:18;;;;;;;7.10;2.70;;;;;;;;;;10512225;28;20069;-72
2022/04/15 23:12:23;;;;;;;5.73;2.80;;;;;;;;;;10506054;28;20090;-70
2022/04/15 23:17:31;;;;;;;5.22;2.03;;;;;;;;;;10510046;28;20183;-70
2022/04/15 23:22:40;;;;;;;6.18;2.70;;;;;;;;;;10510642;28;20480;-70
2022/04/15 23:27:42;;;;;;;4.00;2.20;;;;;;;;;;10513661;28;20029;-70
2022/04/15 23:32:47;;;;;;;4.65;2.50;;;;;;;;;;10492076;28;20044;-71
2022/04/15 23:37:49;;;;;;;;;;;;;;;;;;10490177;28;20063;-70
2022/04/15 23:42:52;;;;;;;4.68;2.17;;;;;;;;;;10504711;28;20183;-71
2022/04/15 23:53:18;;;;;;;6.28;2.58;;;;;;;;;;10506697;28;19983;-70
2022/04/15 23:58:22;;;;;;;4.50;2.30;;;;;;;;;;10506110;28;20075;-69
